Terminal Aerodrome Forecast
Issued by NWS

Home | Current Version | Previous Version | Graphics & Text | Print | Product List | Glossary Off
Versions: 1 2 3 4 5 6 7 8 9 10 11 12 13 14 15 16

033
FTUS43 KMPX 290858 AAA
TAFAXN
TAF AMD
KAXN 290858Z 2909/3006 06005KT P6SM SCT250
     FM291600 05010KT P6SM BKN250
     FM300300 07006KT P6SM OVC150=

USA.gov is the U.S. government's official web portal to all federal, state and local government web resources and services.